sensor_id;sensor_type;location;lat;lon;timestamp;temperature;humidity
7512;DHT22;9999;48.780;9.146;2022-10-17T00:00:49;15.10;99.90
7512;DHT22;9999;48.780;9.146;2022-10-17T00:03:16;15.10;99.90
7512;DHT22;9999;48.780;9.146;2022-10-17T00:05:45;15.10;99.90
7512;DHT22;9999;48.780;9.146;2022-10-17T00:08:14;15.00;99.90
7512;DHT22;9999;48.780;9.146;2022-10-17T00:10:43;15.00;99.90
7512;DHT22;9999;48.780;9.146;2022-10-17T00:13:10;14.90;99.90
7512;DHT22;9999;48.780;9.146;2022-10-17T00:15:37;14.90;99.90
7512;DHT22;9999;48.780;9.146;2022-10-17T00:18:05;14.90;99.90
7512;DHT22;9999;48.780;9.146;2022-10-17T00:20:35;14.90;99.90
7512;DHT22;9999;48.780;9.146;2022-10-17T00:23:02;14.90;99.90
7512;DHT22;9999;48.780;9.146;2022-10-17T00:25:29;14.90;99.90
7512;DHT22;9999;48.780;9.146;2022-10-17T00:27:57;14.90;99.90
7512;DHT22;9999;48.780;9.146;2022-10-17T00:30:24;14.90;99.90
7512;DHT22;9999;48.780;9.146;2022-10-17T00:32:51;14.80;99.90
7512;DHT22;9999;48.780;9.146;2022-10-17T00:35:17;14.80;99.90
7512;DHT22;9999;48.780;9.146;2022-10-17T00:37:44;14.70;99.90
7512;DHT22;9999;48.780;9.146;2022-10-17T00:40:11;14.70;99.90
7512;DHT22;9999;48.780;9.146;2022-10-17T00:42:38;14.70;99.90
7512;DHT22;9999;48.780;9.146;2022-10-17T00:45:21;14.60;99.90
7512;DHT22;9999;48.780;9.146;2022-10-17T00:47:51;14.60;99.90
7512;DHT22;9999;48.780;9.146;2022-10-17T00:50:20;14.60;99.90
7512;DHT22;9999;48.780;9.146;2022-10-17T00:52:49;14.60;99.90
7512;DHT22;9999;48.780;9.146;2022-10-17T00:55:20;14.60;99.90
7512;DHT22;9999;48.780;9.146;2022-10-17T00:57:48;14.60;99.90
7512;DHT22;9999;48.780;9.146;2022-10-17T01:00:19;14.60;99.90
7512;DHT22;9999;48.780;9.146;2022-10-17T01:02:47;14.60;99.90
7512;DHT22;9999;48.780;9.146;2022-10-17T01:05:16;14.50;99.90
7512;DHT22;9999;48.780;9.146;2022-10-17T01:07:45;14.50;99.90
7512;DHT22;9999;48.780;9.146;2022-10-17T01:10:13;14.50;99.90
7512;DHT22;9999;48.780;9.146;2022-10-17T01:12:47;14.40;99.90
7512;DHT22;9999;48.780;9.146;2022-10-17T01:15:28;14.40;99.90
7512;DHT22;9999;48.780;9.146;2022-10-17T01:18:07;14.40;99.90
7512;DHT22;9999;48.780;9.146;2022-10-17T01:21:06;14.40;99.90
7512;DHT22;9999;48.780;9.146;2022-10-17T01:26:51;14.40;99.90
7512;DHT22;9999;48.780;9.146;2022-10-17T01:29:34;14.40;99.90
7512;DHT22;9999;48.780;9.146;2022-10-17T01:32:13;14.40;99.90
7512;DHT22;9999;48.780;9.146;2022-10-17T01:34:46;14.40;99.90
7512;DHT22;9999;48.780;9.146;2022-10-17T01:37:25;14.40;99.90
7512;DHT22;9999;48.780;9.146;2022-10-17T01:39:59;14.40;99.90
7512;DHT22;9999;48.780;9.146;2022-10-17T01:42:33;14.30;99.90
7512;DHT22;9999;48.780;9.146;2022-10-17T01:45:07;14.40;99.90
7512;DHT22;9999;48.780;9.146;2022-10-17T01:47:39;14.30;99.90
7512;DHT22;9999;48.780;9.146;2022-10-17T01:50:11;14.30;99.90
7512;DHT22;9999;48.780;9.146;2022-10-17T01:52:43;14.30;99.90
7512;DHT22;9999;48.780;9.146;2022-10-17T01:55:14;14.30;99.90
7512;DHT22;9999;48.780;9.146;2022-10-17T01:57:44;14.20;99.90
7512;DHT22;9999;48.780;9.146;2022-10-17T02:00:14;14.30;99.90
7512;DHT22;9999;48.780;9.146;2022-10-17T02:02:45;14.20;99.90
7512;DHT22;9999;48.780;9.146;2022-10-17T02:05:16;14.20;99.90
7512;DHT22;9999;48.780;9.146;2022-10-17T02:07:44;14.20;99.90
7512;DHT22;9999;48.780;9.146;2022-10-17T02:10:15;14.20;99.90
7512;DHT22;9999;48.780;9.146;2022-10-17T02:12:49;14.10;99.90
7512;DHT22;9999;48.780;9.146;2022-10-17T02:15:39;14.10;99.90
7512;DHT22;9999;48.780;9.146;2022-10-17T02:18:26;14.00;99.90
7512;DHT22;9999;48.780;9.146;2022-10-17T02:20:59;14.00;99.90
7512;DHT22;9999;48.780;9.146;2022-10-17T02:23:33;14.00;99.90
7512;DHT22;9999;48.780;9.146;2022-10-17T02:26:08;14.00;99.90
7512;DHT22;9999;48.780;9.146;2022-10-17T02:28:39;14.10;99.90
7512;DHT22;9999;48.780;9.146;2022-10-17T02:31:11;14.20;99.90
7512;DHT22;9999;48.780;9.146;2022-10-17T02:33:47;14.20;99.90
7512;DHT22;9999;48.780;9.146;2022-10-17T02:36:20;14.30;99.90
7512;DHT22;9999;48.780;9.146;2022-10-17T02:38:48;14.20;99.90
7512;DHT22;9999;48.780;9.146;2022-10-17T02:41:17;14.10;99.90
7512;DHT22;9999;48.780;9.146;2022-10-17T02:43:46;14.10;99.90
7512;DHT22;9999;48.780;9.146;2022-10-17T02:46:15;14.10;99.90
7512;DHT22;9999;48.780;9.146;2022-10-17T02:48:50;14.10;99.90
7512;DHT22;9999;48.780;9.146;2022-10-17T02:51:23;14.10;99.90
7512;DHT22;9999;48.780;9.146;2022-10-17T02:53:55;14.10;99.90
7512;DHT22;9999;48.780;9.146;2022-10-17T02:56:25;14.10;99.90
7512;DHT22;9999;48.780;9.146;2022-10-17T02:58:56;14.10;99.90
7512;DHT22;9999;48.780;9.146;2022-10-17T03:01:24;14.10;99.90
7512;DHT22;9999;48.780;9.146;2022-10-17T03:04:03;14.00;99.90
7512;DHT22;9999;48.780;9.146;2022-10-17T03:06:30;13.90;99.90
7512;DHT22;9999;48.780;9.146;2022-10-17T03:08:57;14.00;99.90
7512;DHT22;9999;48.780;9.146;2022-10-17T03:11:24;13.90;99.90
7512;DHT22;9999;48.780;9.146;2022-10-17T03:13:51;13.90;99.90
7512;DHT22;9999;48.780;9.146;2022-10-17T03:16:18;13.90;99.90
7512;DHT22;9999;48.780;9.146;2022-10-17T03:18:44;14.00;99.90
7512;DHT22;9999;48.780;9.146;2022-10-17T03:21:13;14.00;99.90
7512;DHT22;9999;48.780;9.146;2022-10-17T03:23:41;14.10;99.90
7512;DHT22;9999;48.780;9.146;2022-10-17T03:26:08;14.10;99.90
7512;DHT22;9999;48.780;9.146;2022-10-17T03:28:35;14.10;99.90
7512;DHT22;9999;48.780;9.146;2022-10-17T03:31:06;14.10;99.90
7512;DHT22;9999;48.780;9.146;2022-10-17T03:33:34;14.10;99.90
7512;DHT22;9999;48.780;9.146;2022-10-17T03:36:04;14.10;99.90
7512;DHT22;9999;48.780;9.146;2022-10-17T03:38:33;14.10;99.90
7512;DHT22;9999;48.780;9.146;2022-10-17T03:41:00;14.10;99.90
7512;DHT22;9999;48.780;9.146;2022-10-17T03:43:27;14.00;99.90
7512;DHT22;9999;48.780;9.146;2022-10-17T03:45:55;14.00;99.90
7512;DHT22;9999;48.780;9.146;2022-10-17T03:48:22;14.00;99.90
7512;DHT22;9999;48.780;9.146;2022-10-17T03:50:49;13.90;99.90
7512;DHT22;9999;48.780;9.146;2022-10-17T03:53:16;13.90;99.90
7512;DHT22;9999;48.780;9.146;2022-10-17T03:55:45;13.80;99.90
7512;DHT22;9999;48.780;9.146;2022-10-17T03:58:11;13.70;99.90
7512;DHT22;9999;48.780;9.146;2022-10-17T04:00:38;13.70;99.90
7512;DHT22;9999;48.780;9.146;2022-10-17T04:03:05;13.70;99.90
7512;DHT22;9999;48.780;9.146;2022-10-17T04:05:32;13.70;99.90
7512;DHT22;9999;48.780;9.146;2022-10-17T04:07:59;13.70;99.90
7512;DHT22;9999;48.780;9.146;2022-10-17T04:10:46;13.70;99.90
7512;DHT22;9999;48.780;9.146;2022-10-17T04:13:13;13.70;99.90
7512;DHT22;9999;48.780;9.146;2022-10-17T04:15:40;13.60;99.90
7512;DHT22;9999;48.780;9.146;2022-10-17T04:18:07;13.60;99.90
7512;DHT22;9999;48.780;9.146;2022-10-17T04:20:34;13.60;99.90
7512;DHT22;9999;48.780;9.146;2022-10-17T04:23:01;13.60;99.90
7512;DHT22;9999;48.780;9.146;2022-10-17T04:25:28;13.60;99.90
7512;DHT22;9999;48.780;9.146;2022-10-17T04:27:56;13.70;99.90
7512;DHT22;9999;48.780;9.146;2022-10-17T04:30:23;13.70;99.90
7512;DHT22;9999;48.780;9.146;2022-10-17T04:32:49;13.80;99.90
7512;DHT22;9999;48.780;9.146;2022-10-17T04:35:21;13.70;99.90
7512;DHT22;9999;48.780;9.146;2022-10-17T04:37:55;13.80;99.90
7512;DHT22;9999;48.780;9.146;2022-10-17T04:40:22;13.80;99.90
7512;DHT22;9999;48.780;9.146;2022-10-17T04:42:51;13.80;99.90
7512;DHT22;9999;48.780;9.146;2022-10-17T04:45:23;13.80;99.90
7512;DHT22;9999;48.780;9.146;2022-10-17T04:47:56;13.80;99.90
7512;DHT22;9999;48.780;9.146;2022-10-17T04:50:23;13.80;99.90
7512;DHT22;9999;48.780;9.146;2022-10-17T04:53:10;13.80;99.90
7512;DHT22;9999;48.780;9.146;2022-10-17T04:55:40;13.80;99.90
7512;DHT22;9999;48.780;9.146;2022-10-17T04:58:07;13.80;99.90
7512;DHT22;9999;48.780;9.146;2022-10-17T05:00:36;13.80;99.90
7512;DHT22;9999;48.780;9.146;2022-10-17T05:03:11;13.70;99.90
7512;DHT22;9999;48.780;9.146;2022-10-17T05:05:39;13.70;99.90
7512;DHT22;9999;48.780;9.146;2022-10-17T05:08:07;13.70;99.90
7512;DHT22;9999;48.780;9.146;2022-10-17T05:10:38;13.70;99.90
7512;DHT22;9999;48.780;9.146;2022-10-17T05:13:06;13.70;99.90
7512;DHT22;9999;48.780;9.146;2022-10-17T05:15:35;13.70;99.90
7512;DHT22;9999;48.780;9.146;2022-10-17T05:18:03;13.70;99.90
7512;DHT22;9999;48.780;9.146;2022-10-17T05:20:31;13.70;99.90
7512;DHT22;9999;48.780;9.146;2022-10-17T05:22:59;13.70;99.90
7512;DHT22;9999;48.780;9.146;2022-10-17T05:25:31;13.70;99.90
7512;DHT22;9999;48.780;9.146;2022-10-17T05:27:57;13.60;99.90
7512;DHT22;9999;48.780;9.146;2022-10-17T05:30:24;13.50;99.90
7512;DHT22;9999;48.780;9.146;2022-10-17T05:32:57;13.60;99.90
7512;DHT22;9999;48.780;9.146;2022-10-17T05:35:24;13.60;99.90
7512;DHT22;9999;48.780;9.146;2022-10-17T05:37:51;13.60;99.90
7512;DHT22;9999;48.780;9.146;2022-10-17T05:40:19;13.60;99.90
7512;DHT22;9999;48.780;9.146;2022-10-17T05:42:50;13.60;99.90
7512;DHT22;9999;48.780;9.146;2022-10-17T05:45:18;13.60;99.90
7512;DHT22;9999;48.780;9.146;2022-10-17T05:47:45;13.50;99.90
7512;DHT22;9999;48.780;9.146;2022-10-17T05:50:13;13.40;99.90
7512;DHT22;9999;48.780;9.146;2022-10-17T05:52:57;13.40;99.90
7512;DHT22;9999;48.780;9.146;2022-10-17T05:55:24;13.50;99.90
7512;DHT22;9999;48.780;9.146;2022-10-17T05:57:51;13.40;99.90
7512;DHT22;9999;48.780;9.146;2022-10-17T06:00:20;13.40;99.90
7512;DHT22;9999;48.780;9.146;2022-10-17T06:02:54;13.40;99.90
7512;DHT22;9999;48.780;9.146;2022-10-17T06:05:24;13.40;99.90
7512;DHT22;9999;48.780;9.146;2022-10-17T06:07:51;13.40;99.90
7512;DHT22;9999;48.780;9.146;2022-10-17T06:10:18;13.30;99.90
7512;DHT22;9999;48.780;9.146;2022-10-17T06:12:45;13.20;99.90
7512;DHT22;9999;48.780;9.146;2022-10-17T06:15:13;13.30;99.90
7512;DHT22;9999;48.780;9.146;2022-10-17T06:17:44;13.40;99.90
7512;DHT22;9999;48.780;9.146;2022-10-17T06:20:10;13.40;99.90
7512;DHT22;9999;48.780;9.146;2022-10-17T06:22:38;13.30;99.90
7512;DHT22;9999;48.780;9.146;2022-10-17T06:25:11;13.30;99.90
7512;DHT22;9999;48.780;9.146;2022-10-17T06:27:40;13.20;99.90
7512;DHT22;9999;48.780;9.146;2022-10-17T06:30:07;13.30;99.90
7512;DHT22;9999;48.780;9.146;2022-10-17T06:32:34;13.30;99.90
7512;DHT22;9999;48.780;9.146;2022-10-17T06:35:01;13.30;99.90
7512;DHT22;9999;48.780;9.146;2022-10-17T06:37:30;13.20;99.90
7512;DHT22;9999;48.780;9.146;2022-10-17T06:39:58;13.30;99.90
7512;DHT22;9999;48.780;9.146;2022-10-17T06:42:25;13.30;99.90
7512;DHT22;9999;48.780;9.146;2022-10-17T06:45:03;13.40;99.90
7512;DHT22;9999;48.780;9.146;2022-10-17T06:47:36;13.40;99.90
7512;DHT22;9999;48.780;9.146;2022-10-17T06:50:22;13.50;99.90
7512;DHT22;9999;48.780;9.146;2022-10-17T06:53:01;13.50;99.90
7512;DHT22;9999;48.780;9.146;2022-10-17T06:55:50;13.90;99.90
7512;DHT22;9999;48.780;9.146;2022-10-17T06:58:24;14.50;99.90
7512;DHT22;9999;48.780;9.146;2022-10-17T07:01:05;14.80;99.90
7512;DHT22;9999;48.780;9.146;2022-10-17T07:03:33;15.20;99.90
7512;DHT22;9999;48.780;9.146;2022-10-17T07:06:00;15.50;99.90
7512;DHT22;9999;48.780;9.146;2022-10-17T07:08:28;15.70;99.90
7512;DHT22;9999;48.780;9.146;2022-10-17T07:10:56;15.80;99.90
7512;DHT22;9999;48.780;9.146;2022-10-17T07:13:25;15.90;99.90
7512;DHT22;9999;48.780;9.146;2022-10-17T07:15:52;16.00;99.90
7512;DHT22;9999;48.780;9.146;2022-10-17T07:18:22;16.20;99.90
7512;DHT22;9999;48.780;9.146;2022-10-17T07:20:53;16.40;99.90
7512;DHT22;9999;48.780;9.146;2022-10-17T07:23:20;16.60;99.90
7512;DHT22;9999;48.780;9.146;2022-10-17T07:25:47;16.70;99.90
7512;DHT22;9999;48.780;9.146;2022-10-17T07:28:17;16.80;99.90
7512;DHT22;9999;48.780;9.146;2022-10-17T07:30:44;16.80;99.90
7512;DHT22;9999;48.780;9.146;2022-10-17T07:33:11;16.90;99.90
7512;DHT22;9999;48.780;9.146;2022-10-17T07:35:38;16.90;99.90
7512;DHT22;9999;48.780;9.146;2022-10-17T07:38:06;16.90;99.90
7512;DHT22;9999;48.780;9.146;2022-10-17T07:40:34;16.90;99.90
7512;DHT22;9999;48.780;9.146;2022-10-17T07:43:00;16.90;99.90
7512;DHT22;9999;48.780;9.146;2022-10-17T07:45:30;16.90;99.90
7512;DHT22;9999;48.780;9.146;2022-10-17T07:47:57;17.00;99.90
7512;DHT22;9999;48.780;9.146;2022-10-17T07:50:24;17.10;99.90
7512;DHT22;9999;48.780;9.146;2022-10-17T07:52:51;17.20;99.90
7512;DHT22;9999;48.780;9.146;2022-10-17T07:55:18;17.20;99.90
7512;DHT22;9999;48.780;9.146;2022-10-17T07:57:44;17.20;99.90
7512;DHT22;9999;48.780;9.146;2022-10-17T08:00:12;17.30;99.90
7512;DHT22;9999;48.780;9.146;2022-10-17T08:02:41;17.30;99.90
7512;DHT22;9999;48.780;9.146;2022-10-17T08:05:08;17.30;99.90
7512;DHT22;9999;48.780;9.146;2022-10-17T08:07:35;17.40;99.90
7512;DHT22;9999;48.780;9.146;2022-10-17T08:10:02;17.40;99.90
7512;DHT22;9999;48.780;9.146;2022-10-17T08:12:29;17.50;99.90
7512;DHT22;9999;48.780;9.146;2022-10-17T08:14:58;17.50;99.90
7512;DHT22;9999;48.780;9.146;2022-10-17T08:17:25;17.50;99.90
7512;DHT22;9999;48.780;9.146;2022-10-17T08:19:54;17.50;99.90
7512;DHT22;9999;48.780;9.146;2022-10-17T08:22:20;17.50;99.90
7512;DHT22;9999;48.780;9.146;2022-10-17T08:24:47;17.60;99.90
7512;DHT22;9999;48.780;9.146;2022-10-17T08:27:14;17.60;99.90
7512;DHT22;9999;48.780;9.146;2022-10-17T08:29:45;17.70;99.90
7512;DHT22;9999;48.780;9.146;2022-10-17T08:32:17;17.80;99.90
7512;DHT22;9999;48.780;9.146;2022-10-17T08:34:44;17.80;99.90
7512;DHT22;9999;48.780;9.146;2022-10-17T08:37:12;17.80;99.90
7512;DHT22;9999;48.780;9.146;2022-10-17T08:39:39;17.80;99.90
7512;DHT22;9999;48.780;9.146;2022-10-17T08:42:29;17.80;99.90
7512;DHT22;9999;48.780;9.146;2022-10-17T08:45:07;17.90;99.90
7512;DHT22;9999;48.780;9.146;2022-10-17T08:47:38;18.00;99.90
7512;DHT22;9999;48.780;9.146;2022-10-17T08:50:10;18.10;99.90
7512;DHT22;9999;48.780;9.146;2022-10-17T08:52:43;18.20;99.90
7512;DHT22;9999;48.780;9.146;2022-10-17T08:55:14;18.30;99.90
7512;DHT22;9999;48.780;9.146;2022-10-17T08:57:41;18.30;99.90
7512;DHT22;9999;48.780;9.146;2022-10-17T09:00:14;18.40;99.90
7512;DHT22;9999;48.780;9.146;2022-10-17T09:02:49;18.40;99.90
7512;DHT22;9999;48.780;9.146;2022-10-17T09:05:37;18.50;99.90
7512;DHT22;9999;48.780;9.146;2022-10-17T09:08:26;18.60;99.90
7512;DHT22;9999;48.780;9.146;2022-10-17T09:10:57;18.80;99.90
7512;DHT22;9999;48.780;9.146;2022-10-17T09:13:42;19.00;99.90
7512;DHT22;9999;48.780;9.146;2022-10-17T09:16:32;19.10;99.90
7512;DHT22;9999;48.780;9.146;2022-10-17T09:19:08;19.10;99.90
7512;DHT22;9999;48.780;9.146;2022-10-17T09:21:42;19.10;99.90
7512;DHT22;9999;48.780;9.146;2022-10-17T09:24:14;19.20;99.90
7512;DHT22;9999;48.780;9.146;2022-10-17T09:26:44;19.20;99.90
7512;DHT22;9999;48.780;9.146;2022-10-17T09:29:16;19.20;99.90
7512;DHT22;9999;48.780;9.146;2022-10-17T09:31:47;19.20;99.90
7512;DHT22;9999;48.780;9.146;2022-10-17T09:34:16;19.40;99.90
7512;DHT22;9999;48.780;9.146;2022-10-17T09:36:43;19.50;99.90
7512;DHT22;9999;48.780;9.146;2022-10-17T09:39:13;19.60;99.90
7512;DHT22;9999;48.780;9.146;2022-10-17T09:41:43;19.60;99.90
7512;DHT22;9999;48.780;9.146;2022-10-17T09:44:19;19.70;99.90
7512;DHT22;9999;48.780;9.146;2022-10-17T09:47:07;19.80;99.90
7512;DHT22;9999;48.780;9.146;2022-10-17T09:49:37;19.90;99.90
7512;DHT22;9999;48.780;9.146;2022-10-17T09:52:07;20.00;99.90
7512;DHT22;9999;48.780;9.146;2022-10-17T09:54:42;20.10;99.90
7512;DHT22;9999;48.780;9.146;2022-10-17T09:57:11;20.10;99.90
7512;DHT22;9999;48.780;9.146;2022-10-17T09:59:43;20.20;99.90
7512;DHT22;9999;48.780;9.146;2022-10-17T10:02:19;20.30;99.90
7512;DHT22;9999;48.780;9.146;2022-10-17T10:04:57;20.40;99.90
7512;DHT22;9999;48.780;9.146;2022-10-17T10:07:26;20.50;99.90
7512;DHT22;9999;48.780;9.146;2022-10-17T10:09:56;20.60;99.90
7512;DHT22;9999;48.780;9.146;2022-10-17T10:12:25;20.70;99.90
7512;DHT22;9999;48.780;9.146;2022-10-17T10:14:52;20.90;99.90
7512;DHT22;9999;48.780;9.146;2022-10-17T10:17:28;20.90;99.90
7512;DHT22;9999;48.780;9.146;2022-10-17T10:19:59;21.00;99.90
7512;DHT22;9999;48.780;9.146;2022-10-17T10:22:26;21.10;99.90
7512;DHT22;9999;48.780;9.146;2022-10-17T10:25:16;21.30;99.90
7512;DHT22;9999;48.780;9.146;2022-10-17T10:27:44;21.30;99.90
7512;DHT22;9999;48.780;9.146;2022-10-17T10:30:17;21.40;99.90
7512;DHT22;9999;48.780;9.146;2022-10-17T10:32:46;21.50;99.90
7512;DHT22;9999;48.780;9.146;2022-10-17T10:35:19;21.60;99.90
7512;DHT22;9999;48.780;9.146;2022-10-17T10:37:49;21.70;99.90
7512;DHT22;9999;48.780;9.146;2022-10-17T10:40:20;21.70;99.90
7512;DHT22;9999;48.780;9.146;2022-10-17T10:42:50;21.80;99.90
7512;DHT22;9999;48.780;9.146;2022-10-17T10:45:18;22.00;99.90
7512;DHT22;9999;48.780;9.146;2022-10-17T10:47:50;22.10;99.90
7512;DHT22;9999;48.780;9.146;2022-10-17T10:50:27;22.20;99.90
7512;DHT22;9999;48.780;9.146;2022-10-17T10:53:06;22.30;99.90
7512;DHT22;9999;48.780;9.146;2022-10-17T10:55:42;22.50;99.90
7512;DHT22;9999;48.780;9.146;2022-10-17T10:58:23;22.70;99.90
7512;DHT22;9999;48.780;9.146;2022-10-17T11:00:52;22.90;99.90
7512;DHT22;9999;48.780;9.146;2022-10-17T11:03:25;23.00;99.90
7512;DHT22;9999;48.780;9.146;2022-10-17T11:05:56;23.10;99.90
7512;DHT22;9999;48.780;9.146;2022-10-17T11:08:32;23.20;99.90
7512;DHT22;9999;48.780;9.146;2022-10-17T11:11:08;23.40;99.90
7512;DHT22;9999;48.780;9.146;2022-10-17T11:13:41;23.50;99.90
7512;DHT22;9999;48.780;9.146;2022-10-17T11:16:26;23.50;99.90
7512;DHT22;9999;48.780;9.146;2022-10-17T11:18:58;23.80;99.90
7512;DHT22;9999;48.780;9.146;2022-10-17T11:21:38;23.90;99.90
7512;DHT22;9999;48.780;9.146;2022-10-17T11:24:11;23.90;99.90
7512;DHT22;9999;48.780;9.146;2022-10-17T11:26:45;23.90;99.90
7512;DHT22;9999;48.780;9.146;2022-10-17T11:29:15;24.00;99.90
7512;DHT22;9999;48.780;9.146;2022-10-17T11:31:47;24.10;99.90
7512;DHT22;9999;48.780;9.146;2022-10-17T11:34:18;24.10;99.90
7512;DHT22;9999;48.780;9.146;2022-10-17T11:36:48;24.30;99.90
7512;DHT22;9999;48.780;9.146;2022-10-17T11:39:19;24.30;99.90
7512;DHT22;9999;48.780;9.146;2022-10-17T11:41:52;24.50;99.90
7512;DHT22;9999;48.780;9.146;2022-10-17T11:44:23;24.50;99.90
7512;DHT22;9999;48.780;9.146;2022-10-17T11:46:55;24.60;99.90
7512;DHT22;9999;48.780;9.146;2022-10-17T11:49:26;24.70;99.90
7512;DHT22;9999;48.780;9.146;2022-10-17T11:51:56;24.90;99.90
7512;DHT22;9999;48.780;9.146;2022-10-17T11:54:32;25.00;99.90
7512;DHT22;9999;48.780;9.146;2022-10-17T11:57:13;24.90;99.90
7512;DHT22;9999;48.780;9.146;2022-10-17T12:00:02;24.90;99.90
7512;DHT22;9999;48.780;9.146;2022-10-17T12:02:39;24.90;99.90
7512;DHT22;9999;48.780;9.146;2022-10-17T12:05:15;25.10;99.90
7512;DHT22;9999;48.780;9.146;2022-10-17T12:07:47;25.20;99.90
7512;DHT22;9999;48.780;9.146;2022-10-17T12:10:24;25.20;99.90
7512;DHT22;9999;48.780;9.146;2022-10-17T12:12:55;25.10;99.90
7512;DHT22;9999;48.780;9.146;2022-10-17T12:15:29;25.20;99.90
7512;DHT22;9999;48.780;9.146;2022-10-17T12:17:58;25.10;99.90
7512;DHT22;9999;48.780;9.146;2022-10-17T12:20:34;25.30;99.90
7512;DHT22;9999;48.780;9.146;2022-10-17T12:25:51;25.30;99.30
7512;DHT22;9999;48.780;9.146;2022-10-17T12:28:25;25.30;99.90
7512;DHT22;9999;48.780;9.146;2022-10-17T12:30:56;25.50;99.90
7512;DHT22;9999;48.780;9.146;2022-10-17T12:33:30;25.50;99.90
7512;DHT22;9999;48.780;9.146;2022-10-17T12:42:30;25.40;99.90
7512;DHT22;9999;48.780;9.146;2022-10-17T12:44:58;25.30;99.90
7512;DHT22;9999;48.780;9.146;2022-10-17T12:47:36;25.40;99.90
7512;DHT22;9999;48.780;9.146;2022-10-17T12:50:58;25.50;99.90
7512;DHT22;9999;48.780;9.146;2022-10-17T12:53:36;25.60;99.90
7512;DHT22;9999;48.780;9.146;2022-10-17T12:56:05;25.70;99.90
7512;DHT22;9999;48.780;9.146;2022-10-17T12:58:33;25.60;99.90
7512;DHT22;9999;48.780;9.146;2022-10-17T13:01:01;25.70;99.50
7512;DHT22;9999;48.780;9.146;2022-10-17T13:03:30;25.90;98.30
7512;DHT22;9999;48.780;9.146;2022-10-17T13:06:00;25.90;96.30
7512;DHT22;9999;48.780;9.146;2022-10-17T13:08:31;25.70;99.70
7512;DHT22;9999;48.780;9.146;2022-10-17T13:10:59;25.60;99.90
7512;DHT22;9999;48.780;9.146;2022-10-17T13:13:37;25.50;99.90
7512;DHT22;9999;48.780;9.146;2022-10-17T13:16:07;25.50;99.90
7512;DHT22;9999;48.780;9.146;2022-10-17T13:18:34;25.40;99.90
7512;DHT22;9999;48.780;9.146;2022-10-17T13:21:04;25.50;99.90
7512;DHT22;9999;48.780;9.146;2022-10-17T13:23:34;25.50;99.90
7512;DHT22;9999;48.780;9.146;2022-10-17T13:26:06;25.30;99.90
7512;DHT22;9999;48.780;9.146;2022-10-17T13:28:36;25.40;99.90
7512;DHT22;9999;48.780;9.146;2022-10-17T13:31:03;25.10;99.90
7512;DHT22;9999;48.780;9.146;2022-10-17T13:33:33;24.90;99.90
7512;DHT22;9999;48.780;9.146;2022-10-17T13:36:02;24.90;99.90
7512;DHT22;9999;48.780;9.146;2022-10-17T13:38:31;24.90;99.90
7512;DHT22;9999;48.780;9.146;2022-10-17T13:41:00;25.00;99.90
7512;DHT22;9999;48.780;9.146;2022-10-17T13:43:28;24.90;99.90
7512;DHT22;9999;48.780;9.146;2022-10-17T13:46:00;24.80;99.90
7512;DHT22;9999;48.780;9.146;2022-10-17T13:48:31;24.60;99.90
7512;DHT22;9999;48.780;9.146;2022-10-17T13:50:59;24.60;99.90
7512;DHT22;9999;48.780;9.146;2022-10-17T13:53:30;24.50;99.90
7512;DHT22;9999;48.780;9.146;2022-10-17T13:56:00;24.50;99.90
7512;DHT22;9999;48.780;9.146;2022-10-17T13:58:30;24.50;99.90
7512;DHT22;9999;48.780;9.146;2022-10-17T14:00:59;24.60;99.90
7512;DHT22;9999;48.780;9.146;2022-10-17T14:03:26;24.50;99.90
7512;DHT22;9999;48.780;9.146;2022-10-17T14:06:11;24.50;99.90
7512;DHT22;9999;48.780;9.146;2022-10-17T14:08:47;24.40;99.90
7512;DHT22;9999;48.780;9.146;2022-10-17T14:11:25;24.50;99.90
7512;DHT22;9999;48.780;9.146;2022-10-17T14:13:54;24.50;99.90
7512;DHT22;9999;48.780;9.146;2022-10-17T14:16:23;24.40;99.90
7512;DHT22;9999;48.780;9.146;2022-10-17T14:18:52;24.30;99.90
7512;DHT22;9999;48.780;9.146;2022-10-17T14:21:21;24.30;99.90
7512;DHT22;9999;48.780;9.146;2022-10-17T14:23:49;24.20;99.90
7512;DHT22;9999;48.780;9.146;2022-10-17T14:26:19;24.30;99.90
7512;DHT22;9999;48.780;9.146;2022-10-17T14:28:48;24.40;99.90
7512;DHT22;9999;48.780;9.146;2022-10-17T14:31:24;24.20;99.90
7512;DHT22;9999;48.780;9.146;2022-10-17T14:33:54;24.10;99.90
7512;DHT22;9999;48.780;9.146;2022-10-17T14:36:30;23.90;99.90
7512;DHT22;9999;48.780;9.146;2022-10-17T14:38:58;23.80;99.90
7512;DHT22;9999;48.780;9.146;2022-10-17T14:41:28;23.80;99.90
7512;DHT22;9999;48.780;9.146;2022-10-17T14:43:58;23.70;99.90
7512;DHT22;9999;48.780;9.146;2022-10-17T14:46:26;23.60;99.90
7512;DHT22;9999;48.780;9.146;2022-10-17T14:48:56;23.50;99.90
7512;DHT22;9999;48.780;9.146;2022-10-17T14:51:24;23.50;99.90
7512;DHT22;9999;48.780;9.146;2022-10-17T14:54:18;23.40;99.90
7512;DHT22;9999;48.780;9.146;2022-10-17T14:56:50;23.40;99.90
7512;DHT22;9999;48.780;9.146;2022-10-17T14:59:18;23.30;99.90
7512;DHT22;9999;48.780;9.146;2022-10-17T15:01:48;23.20;99.90
7512;DHT22;9999;48.780;9.146;2022-10-17T15:04:15;23.20;99.90
7512;DHT22;9999;48.780;9.146;2022-10-17T15:06:43;23.10;99.90
7512;DHT22;9999;48.780;9.146;2022-10-17T15:09:10;23.10;99.90
7512;DHT22;9999;48.780;9.146;2022-10-17T15:11:37;23.00;99.90
7512;DHT22;9999;48.780;9.146;2022-10-17T15:14:06;23.00;99.90
7512;DHT22;9999;48.780;9.146;2022-10-17T15:16:33;22.90;99.90
7512;DHT22;9999;48.780;9.146;2022-10-17T15:19:01;22.90;99.90
7512;DHT22;9999;48.780;9.146;2022-10-17T15:21:28;22.80;99.90
7512;DHT22;9999;48.780;9.146;2022-10-17T15:23:55;22.80;99.90
7512;DHT22;9999;48.780;9.146;2022-10-17T15:26:24;22.80;99.90
7512;DHT22;9999;48.780;9.146;2022-10-17T15:28:52;22.80;99.90
7512;DHT22;9999;48.780;9.146;2022-10-17T15:31:22;22.60;99.90
7512;DHT22;9999;48.780;9.146;2022-10-17T15:33:50;22.50;99.90
7512;DHT22;9999;48.780;9.146;2022-10-17T15:36:19;22.50;99.90
7512;DHT22;9999;48.780;9.146;2022-10-17T15:38:47;22.30;99.90
7512;DHT22;9999;48.780;9.146;2022-10-17T15:41:14;22.20;99.90
7512;DHT22;9999;48.780;9.146;2022-10-17T15:43:41;22.10;99.90
7512;DHT22;9999;48.780;9.146;2022-10-17T15:46:13;22.00;99.90
7512;DHT22;9999;48.780;9.146;2022-10-17T15:48:41;21.90;99.90
7512;DHT22;9999;48.780;9.146;2022-10-17T15:51:08;21.90;99.90
7512;DHT22;9999;48.780;9.146;2022-10-17T15:53:35;21.80;99.90
7512;DHT22;9999;48.780;9.146;2022-10-17T15:56:03;21.70;99.90
7512;DHT22;9999;48.780;9.146;2022-10-17T15:58:34;21.60;99.90
7512;DHT22;9999;48.780;9.146;2022-10-17T16:01:02;21.50;99.90
7512;DHT22;9999;48.780;9.146;2022-10-17T16:03:29;21.40;99.90
7512;DHT22;9999;48.780;9.146;2022-10-17T16:05:57;21.30;99.90
7512;DHT22;9999;48.780;9.146;2022-10-17T16:08:24;21.10;99.90
7512;DHT22;9999;48.780;9.146;2022-10-17T16:10:51;21.00;99.90
7512;DHT22;9999;48.780;9.146;2022-10-17T16:13:22;20.90;99.90
7512;DHT22;9999;48.780;9.146;2022-10-17T16:15:49;20.90;99.90
7512;DHT22;9999;48.780;9.146;2022-10-17T16:18:16;20.80;99.90
7512;DHT22;9999;48.780;9.146;2022-10-17T16:20:44;20.80;99.90
7512;DHT22;9999;48.780;9.146;2022-10-17T16:23:13;20.70;99.90
7512;DHT22;9999;48.780;9.146;2022-10-17T16:25:41;20.50;99.90
7512;DHT22;9999;48.780;9.146;2022-10-17T16:28:07;20.30;99.90
7512;DHT22;9999;48.780;9.146;2022-10-17T16:30:40;20.30;99.90
7512;DHT22;9999;48.780;9.146;2022-10-17T16:33:09;20.30;99.90
7512;DHT22;9999;48.780;9.146;2022-10-17T16:35:36;20.30;99.90
7512;DHT22;9999;48.780;9.146;2022-10-17T16:38:04;20.20;99.90